Time;durP1;ratioP1;P1;durP2;ratioP2;P2;SDS_P1;SDS_P2;PMS_P1;PMS_P2;Temp;Humidity;BMP_temperature;BMP_pressure;BME280_temperature;BME280_humidity;BME280_pressure;Samples;Min_cycle;Max_cycle;Signal;HPM_P1;HPM_P2
2021/10/02 00:01:49;;;;;;;1.53;0.70;;;;;;;14.71;57.66;100564.00;5090577;28;20215;-81
2021/10/02 00:34:45;;;;;;;2.03;0.90;;;;;;;14.35;59.34;100557.94;5095223;28;20208;-84
2021/10/02 00:37:35;;;;;;;1.70;0.80;;;;;;;14.33;59.29;100549.16;5096807;28;20220;-83
2021/10/02 00:45:32;;;;;;;1.30;0.90;;;;;;;14.28;59.78;100550.53;5100625;28;20200;-83
2021/10/02 00:47:59;;;;;;;1.53;1.00;;;;;;;14.25;60.04;100548.94;5101796;28;20215;-84
2021/10/02 00:50:26;;;;;;;3.00;1.10;;;;;;;14.24;60.17;100552.59;5100354;28;20212;-84
2021/10/02 00:52:52;;;;;;;3.00;1.00;;;;;;;14.23;59.93;100554.44;5101958;28;20570;-82
2021/10/02 00:55:20;;;;;;;1.53;0.97;;;;;;;14.23;60.35;100548.22;5103436;28;20219;-83
2021/10/02 00:57:47;;;;;;;3.57;1.10;;;;;;;14.23;60.27;100551.75;5095746;28;20228;-83
2021/10/02 01:00:14;;;;;;;1.50;0.90;;;;;;;14.24;60.09;100550.78;5103744;28;20204;-85
2021/10/02 01:02:51;;;;;;;1.80;0.90;;;;;;;14.24;60.13;100550.78;5103200;28;20577;-84
2021/10/02 01:05:42;;;;;;;1.80;1.10;;;;;;;14.23;60.42;100545.53;5095672;28;20701;-83
2021/10/02 01:08:22;;;;;;;2.27;0.90;;;;;;;14.21;60.21;100534.94;5093085;28;20594;-83
2021/10/02 01:10:57;;;;;;;2.97;1.33;;;;;;;14.20;60.49;100535.06;5098187;28;20191;-83
2021/10/02 01:13:31;;;;;;;0.70;0.70;;;;;;;14.19;60.11;100538.72;5095443;28;20195;-83
2021/10/02 01:16:02;;;;;;;1.77;1.00;;;;;;;14.19;60.32;100541.41;5104489;28;20211;-82
2021/10/02 01:18:32;;;;;;;3.57;1.00;;;;;;;14.18;60.24;100540.53;5097394;28;20225;-84
2021/10/02 01:21:16;;;;;;;5.67;1.10;;;;;;;14.17;60.68;100537.97;5097542;28;20196;-83
2021/10/02 01:24:09;;;;;;;2.20;1.13;;;;;;;14.17;60.85;100541.50;5092832;28;20232;-84
2021/10/02 01:27:17;;;;;;;1.77;1.20;;;;;;;14.16;60.70;100536.28;5079972;28;20205;-83
2021/10/02 01:29:46;;;;;;;2.50;1.03;;;;;;;14.14;61.17;100535.56;5093107;28;20208;-84
2021/10/02 01:32:17;;;;;;;1.33;1.10;;;;;;;14.13;61.17;100531.19;5089924;28;20239;-84
2021/10/02 01:34:54;;;;;;;2.93;1.03;;;;;;;14.10;61.74;100534.97;5098802;28;20261;-83
2021/10/02 01:37:33;;;;;;;4.63;1.20;;;;;;;14.08;61.40;100528.03;5085610;28;20227;-84
2021/10/02 01:48:32;;;;;;;3.13;1.17;;;;;;;14.01;62.36;100516.09;5095180;28;20230;-82
2021/10/02 01:51:01;;;;;;;2.37;1.00;;;;;;;14.01;62.82;100514.25;5095784;28;20202;-82
2021/10/02 01:53:33;;;;;;;1.40;0.93;;;;;;;14.04;63.42;100513.16;5094662;28;20671;-84
2021/10/02 01:56:02;;;;;;;1.47;0.80;;;;;;;14.06;63.70;100521.94;5095834;28;20220;-84
2021/10/02 01:58:30;;;;;;;1.80;1.03;;;;;;;14.06;64.06;100524.63;5107490;28;20231;-82
2021/10/02 02:00:59;;;;;;;3.30;1.43;;;;;;;14.06;64.85;100519.25;5100800;28;20697;-83
2021/10/02 02:03:27;;;;;;;1.97;0.97;;;;;;;14.05;65.40;100520.22;5094726;28;20204;-83
2021/10/02 02:05:55;;;;;;;2.97;0.90;;;;;;;14.03;65.63;100522.16;5103067;28;20203;-82
2021/10/02 02:08:29;;;;;;;1.87;1.00;;;;;;;13.99;65.74;100518.03;5097398;28;20228;-82
2021/10/02 02:10:56;;;;;;;1.90;0.90;;;;;;;13.97;66.27;100520.00;5094707;28;20200;-82
2021/10/02 02:13:26;;;;;;;1.87;1.20;;;;;;;13.96;66.36;100524.50;5095696;28;20213;-82
2021/10/02 02:15:54;;;;;;;1.90;1.00;;;;;;;13.93;66.62;100523.91;5105373;28;20228;-83
2021/10/02 02:18:24;;;;;;;2.00;0.90;;;;;;;13.89;67.20;100521.44;5093602;28;20232;-83
2021/10/02 02:20:58;;;;;;;2.70;1.17;;;;;;;13.85;67.28;100522.66;5093750;28;20230;-82
2021/10/02 02:23:26;;;;;;;2.87;1.10;;;;;;;13.81;68.07;100525.69;5093947;28;20225;-82
2021/10/02 02:25:53;;;;;;;3.47;1.00;;;;;;;13.77;68.23;100524.25;5093808;28;20204;-84
2021/10/02 02:28:21;;;;;;;2.07;1.20;;;;;;;13.72;68.30;100529.97;5095660;28;20224;-86
2021/10/02 02:30:48;;;;;;;1.57;1.20;;;;;;;13.69;68.99;100538.22;5098677;28;20251;-80
2021/10/02 02:33:17;;;;;;;2.40;1.43;;;;;;;13.65;69.39;100538.56;5094781;28;20304;-85
2021/10/02 02:35:46;;;;;;;2.30;1.10;;;;;;;13.60;69.64;100536.28;5098523;28;20238;-83
2021/10/02 02:38:13;;;;;;;3.07;1.20;;;;;;;13.56;69.47;100532.13;5094694;28;20228;-84
2021/10/02 02:40:40;;;;;;;2.53;1.33;;;;;;;13.53;69.77;100524.34;5099460;28;20210;-82
2021/10/02 02:43:08;;;;;;;2.27;1.17;;;;;;;13.49;70.40;100528.22;5093105;28;20204;-82
2021/10/02 02:45:35;;;;;;;2.60;1.03;;;;;;;13.45;70.34;100524.06;5093496;28;20207;-83
2021/10/02 02:48:05;;;;;;;1.80;0.97;;;;;;;13.42;70.73;100518.97;5093166;28;20228;-84
2021/10/02 02:50:38;;;;;;;2.27;1.33;;;;;;;13.39;70.67;100522.72;5094009;28;20207;-82
2021/10/02 02:53:13;;;;;;;3.83;1.30;;;;;;;13.38;70.64;100523.69;5099251;28;20677;-81
2021/10/02 02:55:43;;;;;;;1.33;0.97;;;;;;;13.36;71.15;100525.63;5093894;28;20210;-83
2021/10/02 02:58:10;;;;;;;1.60;1.20;;;;;;;13.38;71.51;100525.53;5092566;28;20220;-81
2021/10/02 03:00:52;;;;;;;2.57;1.30;;;;;;;13.38;71.95;100517.50;5093412;28;20215;-82
2021/10/02 03:03:22;;;;;;;2.60;1.50;;;;;;;13.38;71.79;100515.69;5078746;28;20232;-82
2021/10/02 03:05:49;;;;;;;2.67;1.20;;;;;;;13.38;72.03;100520.16;5103078;28;20677;-82
2021/10/02 03:08:19;;;;;;;2.70;1.87;;;;;;;13.34;72.44;100527.56;5094500;28;20227;-83
2021/10/02 03:10:48;;;;;;;2.80;1.50;;;;;;;13.32;72.98;100517.97;5095997;28;20237;-82
2021/10/02 03:13:18;;;;;;;3.10;1.60;;;;;;;13.31;72.77;100521.59;5095386;28;20208;-82
2021/10/02 03:15:48;;;;;;;3.40;1.30;;;;;;;13.29;73.26;100518.19;5093432;28;20206;-85
2021/10/02 03:18:17;;;;;;;2.00;1.30;;;;;;;13.26;73.15;100521.94;5093275;28;21843;-84
2021/10/02 03:20:44;;;;;;;1.97;1.43;;;;;;;13.21;73.66;100526.81;5093584;28;20212;-85
2021/10/02 03:23:13;;;;;;;1.60;1.20;;;;;;;13.17;73.83;100525.34;5093463;28;20674;-83
2021/10/02 03:25:42;;;;;;;1.67;1.50;;;;;;;13.12;74.47;100522.97;5092417;28;20208;-85
2021/10/02 03:28:08;;;;;;;3.17;1.40;;;;;;;13.09;74.72;100523.19;5093382;28;20231;-85
2021/10/02 03:30:35;;;;;;;2.00;1.60;;;;;;;13.08;75.23;100524.16;5105924;28;20207;-84
2021/10/02 03:33:02;;;;;;;2.30;1.40;;;;;;;13.08;75.19;100524.16;5095295;28;20294;-83
2021/10/02 03:35:29;;;;;;;2.27;1.47;;;;;;;13.09;75.72;100523.19;5093599;28;20211;-84
2021/10/02 03:37:56;;;;;;;3.03;1.30;;;;;;;13.06;75.63;100512.75;5093696;28;20227;-83
2021/10/02 03:40:22;;;;;;;3.00;1.40;;;;;;;13.03;75.52;100515.66;5091537;28;20216;-81
2021/10/02 03:42:53;;;;;;;1.80;1.37;;;;;;;13.00;75.84;100517.72;5092119;28;20230;-82
2021/10/02 03:45:24;;;;;;;3.00;1.37;;;;;;;12.98;76.03;100525.00;5092422;28;20234;-84
2021/10/02 03:47:50;;;;;;;2.23;1.50;;;;;;;12.96;76.54;100524.25;5096903;28;20228;-79
2021/10/02 03:50:17;;;;;;;2.97;1.30;;;;;;;12.93;76.92;100522.66;5094989;28;20204;-82
2021/10/02 03:52:44;;;;;;;2.10;1.20;;;;;;;12.92;76.49;100526.28;5097858;28;20676;-83
2021/10/02 03:55:13;;;;;;;1.80;1.23;;;;;;;12.91;76.65;100524.59;5097376;28;20215;-80
2021/10/02 03:57:40;;;;;;;2.40;1.40;;;;;;;12.89;77.08;100521.19;5102744;28;20238;-82
2021/10/02 04:00:09;;;;;;;3.80;1.63;;;;;;;12.89;77.21;100523.03;5096812;28;20214;-83
2021/10/02 04:02:36;;;;;;;2.30;1.20;;;;;;;12.89;77.29;100515.00;5111444;28;20200;-84
2021/10/02 04:05:03;;;;;;;2.07;1.40;;;;;;;12.88;77.10;100519.50;5096795;28;20200;-84
2021/10/02 04:07:30;;;;;;;1.50;1.37;;;;;;;12.88;77.12;100515.97;5097481;28;20228;-82
2021/10/02 04:09:57;;;;;;;1.90;1.50;;;;;;;12.88;77.29;100522.16;5096625;28;20298;-84
2021/10/02 04:12:23;;;;;;;1.83;1.23;;;;;;;12.88;77.48;100524.84;5100773;28;20238;-83
2021/10/02 04:14:50;;;;;;;1.80;1.23;;;;;;;12.87;77.37;100515.13;5101060;28;20204;-84
2021/10/02 04:17:18;;;;;;;2.13;1.50;;;;;;;12.86;77.50;100516.94;5097428;28;20238;-81
2021/10/02 04:19:44;;;;;;;2.07;1.30;;;;;;;12.86;77.54;100521.44;5097111;28;20208;-81
2021/10/02 04:22:12;;;;;;;1.83;1.23;;;;;;;12.85;77.28;100527.75;5100042;28;20536;-82
2021/10/02 04:24:40;;;;;;;2.37;1.40;;;;;;;12.86;77.24;100521.44;5088312;28;20299;-81
2021/10/02 04:27:08;;;;;;;2.40;1.27;;;;;;;12.84;77.24;100510.84;5100565;28;20200;-83
2021/10/02 04:29:34;;;;;;;2.03;1.60;;;;;;;12.84;77.09;100524.22;5095764;28;20314;-83
2021/10/02 04:32:01;;;;;;;2.57;1.57;;;;;;;12.84;77.18;100523.34;5094711;28;20227;-83
2021/10/02 04:34:29;;;;;;;4.03;1.63;;;;;;;12.84;77.15;100521.53;5094461;28;20212;-82
2021/10/02 04:36:55;;;;;;;1.90;1.70;;;;;;;12.83;77.15;100527.00;5094833;28;20239;-81
2021/10/02 04:39:22;;;;;;;1.73;1.47;;;;;;;12.83;77.50;100518.97;5094713;28;20793;-82
2021/10/02 04:41:50;;;;;;;3.17;1.47;;;;;;;12.82;77.32;100523.47;5096258;28;20255;-82
2021/10/02 04:44:16;;;;;;;2.30;1.50;;;;;;;12.82;77.55;100519.94;5088050;28;20201;-82
2021/10/02 04:46:43;;;;;;;1.57;1.47;;;;;;;12.83;77.59;100516.31;5084598;28;20200;-84
2021/10/02 04:49:09;;;;;;;2.17;1.60;;;;;;;12.82;77.47;100519.94;5085936;28;20231;-82
2021/10/02 04:51:38;;;;;;;1.77;1.37;;;;;;;12.81;77.30;100518.25;5090259;28;20282;-83
2021/10/02 04:54:04;;;;;;;2.70;1.43;;;;;;;12.82;77.54;100511.94;5086319;28;20227;-84
2021/10/02 04:56:32;;;;;;;3.87;1.60;;;;;;;12.82;77.29;100509.25;5083914;28;20213;-83
2021/10/02 04:58:59;;;;;;;4.80;1.53;;;;;;;12.82;77.58;100511.94;5089301;28;20217;-84
2021/10/02 05:01:25;;;;;;;4.23;1.33;;;;;;;12.83;77.36;100516.31;5087260;28;20212;-82
2021/10/02 05:03:53;;;;;;;3.40;1.40;;;;;;;12.84;77.74;100512.66;5082014;28;20204;-83
2021/10/02 05:06:20;;;;;;;4.37;1.50;;;;;;;12.84;77.50;100501.97;5088720;28;20200;-83
2021/10/02 05:08:48;;;;;;;1.53;1.37;;;;;;;12.84;77.39;100494.81;5090870;28;20310;-82
2021/10/02 05:11:15;;;;;;;1.73;1.43;;;;;;;12.86;77.39;100484.88;5085704;28;20201;-83
2021/10/02 05:13:42;;;;;;;1.80;1.40;;;;;;;12.88;77.43;100491.91;5089881;28;20211;-82
2021/10/02 05:16:08;;;;;;;2.00;1.33;;;;;;;12.86;77.63;100484.88;5094508;28;20223;-83
2021/10/02 05:18:35;;;;;;;3.30;1.37;;;;;;;12.88;77.05;100491.91;5097814;28;20234;-80
2021/10/02 05:21:02;;;;;;;3.27;1.40;;;;;;;12.88;77.40;100494.59;5095839;28;20639;-83
2021/10/02 05:23:28;;;;;;;1.87;1.40;;;;;;;12.89;77.39;100498.97;5096709;28;20287;-84
2021/10/02 05:25:56;;;;;;;2.70;1.43;;;;;;;12.90;77.08;100500.66;5095638;28;20223;-82
2021/10/02 05:28:24;;;;;;;3.13;1.20;;;;;;;12.87;76.95;100496.41;5095344;28;20224;-82
2021/10/02 05:30:51;;;;;;;3.77;1.67;;;;;;;12.84;77.33;100497.47;5095373;28;20222;-83
2021/10/02 05:33:17;;;;;;;1.40;1.20;;;;;;;12.84;77.06;100494.81;5096496;28;20675;-83
2021/10/02 05:35:45;;;;;;;1.93;1.30;;;;;;;12.82;77.31;100486.06;5095897;28;20643;-82
2021/10/02 05:38:12;;;;;;;2.13;1.37;;;;;;;12.80;77.26;100474.63;5095572;28;20228;-82
2021/10/02 05:40:38;;;;;;;6.90;2.40;;;;;;;12.81;77.37;100470.13;5093978;28;20208;-83
2021/10/02 05:43:06;;;;;;;3.83;2.27;;;;;;;12.79;77.20;100477.41;5090033;28;20203;-83
2021/10/02 05:45:33;;;;;;;2.63;1.80;;;;;;;12.76;77.62;100478.50;5086624;28;20639;-83
2021/10/02 05:47:59;;;;;;;2.30;2.00;;;;;;;12.76;77.15;100483.81;5086332;28;20220;-82
2021/10/02 05:50:26;;;;;;;2.10;1.50;;;;;;;12.74;77.30;100493.78;5085131;28;20214;-82
2021/10/02 05:52:52;;;;;;;2.47;1.60;;;;;;;12.73;77.54;100497.41;5083636;28;20673;-82
2021/10/02 05:55:19;;;;;;;2.90;1.50;;;;;;;12.70;77.33;100492.31;5085106;28;20208;-82
2021/10/02 05:57:46;;;;;;;2.53;1.47;;;;;;;12.69;77.62;100495.97;5086383;28;20583;-80
2021/10/02 06:00:14;;;;;;;3.57;1.30;;;;;;;12.70;77.73;100494.16;5084314;28;20231;-84
2021/10/02 06:02:41;;;;;;;1.70;1.20;;;;;;;12.69;77.41;100487.09;5084094;28;20196;-83
2021/10/02 06:05:08;;;;;;;2.43;1.27;;;;;;;12.70;78.01;100507.50;5087032;28;20199;-82
2021/10/02 06:07:34;;;;;;;2.87;1.50;;;;;;;12.70;77.77;100502.16;5089011;28;20237;-83
2021/10/02 06:10:01;;;;;;;3.30;1.67;;;;;;;12.70;78.00;100500.34;5090566;28;20564;-86
2021/10/02 06:12:28;;;;;;;2.93;1.20;;;;;;;12.72;78.13;100505.56;5091446;28;20572;-83
2021/10/02 06:14:54;;;;;;;3.63;1.60;;;;;;;12.74;77.94;100507.13;5085043;28;20213;-82
2021/10/02 06:17:22;;;;;;;2.37;1.43;;;;;;;12.76;77.93;100507.03;5087137;28;20246;-84
2021/10/02 06:19:49;;;;;;;2.27;1.27;;;;;;;12.78;77.67;100513.13;5081497;28;20610;-82
2021/10/02 06:22:15;;;;;;;2.43;1.60;;;;;;;12.78;77.75;100519.31;5085548;28;20204;-82
2021/10/02 06:24:43;;;;;;;2.77;1.57;;;;;;;12.82;77.57;100519.94;5080084;28;20201;-81
2021/10/02 06:27:09;;;;;;;2.90;1.50;;;;;;;12.84;77.75;100520.69;5085265;28;20204;-82
2021/10/02 06:29:38;;;;;;;1.73;1.30;;;;;;;12.86;77.84;100516.09;5085304;28;20238;-83
2021/10/02 06:32:05;;;;;;;1.33;0.97;;;;;;;12.86;77.60;100522.28;5086549;28;20855;-83
2021/10/02 06:34:33;;;;;;;2.03;1.20;;;;;;;12.90;77.37;100525.56;5080663;28;20211;-81
2021/10/02 06:37:01;;;;;;;2.27;1.27;;;;;;;12.93;77.58;100533.34;5081915;28;20201;-82
2021/10/02 06:39:28;;;;;;;3.43;1.50;;;;;;;12.95;77.63;100531.41;5084024;28;20203;-82
2021/10/02 06:41:54;;;;;;;1.20;1.00;;;;;;;12.98;77.84;100530.34;5083638;28;20223;-84
2021/10/02 06:44:21;;;;;;;2.43;1.20;;;;;;;13.00;77.57;100539.94;5082909;28;20573;-82
2021/10/02 06:46:50;;;;;;;3.80;2.00;;;;;;;13.01;77.50;100541.66;5079402;28;20662;-83
2021/10/02 06:49:17;;;;;;;3.10;1.50;;;;;;;13.04;77.82;100541.44;5083531;28;20221;-83
2021/10/02 06:51:45;;;;;;;1.47;1.23;;;;;;;13.07;77.75;100557.25;5086462;28;20247;-84
2021/10/02 06:54:14;;;;;;;1.73;1.40;;;;;;;13.10;77.53;100561.47;5088499;28;20195;-85
2021/10/02 06:56:41;;;;;;;3.03;1.40;;;;;;;13.13;77.89;100556.78;5089150;28;20230;-81
2021/10/02 06:59:07;;;;;;;2.23;1.33;;;;;;;13.17;77.70;100546.72;5082085;28;20228;-82
2021/10/02 07:01:35;;;;;;;3.07;1.33;;;;;;;13.20;77.80;100535.81;5079352;28;20650;-82
2021/10/02 07:04:02;;;;;;;4.23;1.50;;;;;;;13.25;78.08;100533.66;5082108;28;20547;-81
2021/10/02 07:06:28;;;;;;;2.43;1.37;;;;;;;13.26;77.46;100529.13;5086307;28;20204;-82
2021/10/02 07:08:56;;;;;;;3.73;1.30;;;;;;;13.32;77.53;100525.97;5083685;28;20223;-81
2021/10/02 07:11:23;;;;;;;4.10;1.90;;;;;;;13.33;77.61;100522.34;5082591;28;20212;-79
2021/10/02 07:13:49;;;;;;;2.53;1.33;;;;;;;13.36;77.61;100519.44;5082922;28;20208;-82
2021/10/02 07:16:16;;;;;;;2.07;1.20;;;;;;;13.41;77.15;100523.47;5085990;28;20615;-80
2021/10/02 07:18:42;;;;;;;2.27;1.30;;;;;;;13.43;77.14;100532.22;5088290;28;21867;-83
2021/10/02 07:21:09;;;;;;;4.17;1.20;;;;;;;13.48;77.07;100523.84;5084751;28;20211;-83
2021/10/02 07:23:37;;;;;;;2.07;1.33;;;;;;;13.52;76.84;100527.97;5076747;28;20299;-83
2021/10/02 07:26:08;;;;;;;3.00;1.80;;;;;;;13.56;76.58;100521.44;5085027;28;20567;-80
2021/10/02 07:28:35;;;;;;;2.43;1.20;;;;;;;13.62;76.67;100526.28;5079854;28;20617;-81
2021/10/02 07:31:01;;;;;;;3.23;1.23;;;;;;;13.69;76.55;100532.03;5085001;28;20208;-81
2021/10/02 07:33:28;;;;;;;3.23;1.13;;;;;;;13.73;76.00;100523.63;5079644;28;20212;-82
2021/10/02 07:35:57;;;;;;;2.67;1.50;;;;;;;13.82;76.58;100512.19;5085701;28;20696;-82
2021/10/02 07:38:24;;;;;;;2.47;1.30;;;;;;;13.93;75.87;100524.75;5076990;28;20243;-82
2021/10/02 07:40:51;;;;;;;2.77;1.40;;;;;;;14.06;76.01;100527.28;5081322;28;20209;-83
2021/10/02 07:43:21;;;;;;;2.50;1.30;;;;;;;14.19;75.94;100525.31;5078895;28;20201;-81
2021/10/02 07:45:50;;;;;;;2.73;1.30;;;;;;;14.32;75.45;100519.84;5076587;28;20204;-83
2021/10/02 07:48:19;;;;;;;1.60;1.10;;;;;;;14.45;75.36;100515.22;5078553;28;20686;-83
2021/10/02 07:50:46;;;;;;;1.83;1.50;;;;;;;14.54;75.14;100523.34;5077712;28;20200;-84
2021/10/02 07:53:13;;;;;;;2.67;1.20;;;;;;;14.63;74.66;100513.72;5079679;28;20200;-83
2021/10/02 07:55:42;;;;;;;2.70;1.50;;;;;;;14.70;73.90;100512.22;5082203;28;20203;-82
2021/10/02 07:58:09;;;;;;;1.20;1.10;;;;;;;14.76;74.11;100510.88;5081732;28;20224;-82
2021/10/02 08:00:37;;;;;;;4.20;1.60;;;;;;;14.81;74.00;100519.38;5082686;28;20209;-83
2021/10/02 08:03:06;;;;;;;1.93;1.20;;;;;;;14.85;73.55;100516.34;5082692;28;20209;-83
2021/10/02 08:05:34;;;;;;;1.67;1.30;;;;;;;14.87;73.08;100521.53;5081794;28;20211;-83
2021/10/02 08:08:02;;;;;;;3.17;1.33;;;;;;;14.88;73.23;100520.56;5082953;28;20223;-83
2021/10/02 08:10:29;;;;;;;2.20;1.30;;;;;;;14.90;73.11;100527.50;5082600;28;20576;-81
2021/10/02 08:12:56;;;;;;;1.60;1.07;;;;;;;14.90;72.79;100518.59;5084377;28;20234;-84
2021/10/02 08:15:23;;;;;;;2.07;1.10;;;;;;;14.91;72.91;100514.94;5077564;28;20208;-83
2021/10/02 08:17:51;;;;;;;4.00;1.53;;;;;;;14.92;72.73;100517.50;5080613;28;20941;-84
2021/10/02 08:20:19;;;;;;;2.03;1.10;;;;;;;14.96;73.05;100507.38;5084683;28;20220;-80
2021/10/02 08:22:48;;;;;;;2.50;1.10;;;;;;;15.10;72.90;100520.47;5088658;28;20204;-83
2021/10/02 08:25:17;;;;;;;1.80;1.17;;;;;;;15.25;73.29;100513.81;5087359;28;20204;-83
2021/10/02 08:27:45;;;;;;;3.63;1.00;;;;;;;15.44;72.51;100506.88;5084878;28;20235;-85
2021/10/02 08:30:13;;;;;;;2.17;1.17;;;;;;;15.60;71.92;100501.91;5086161;28;20268;-84
2021/10/02 08:32:40;;;;;;;1.67;1.30;;;;;;;15.75;71.55;100503.28;5085371;28;20201;-84
2021/10/02 08:35:10;;;;;;;1.87;1.10;;;;;;;15.92;70.87;100504.50;5084597;28;20288;-81
2021/10/02 08:37:37;;;;;;;4.20;3.50;;;;;;;16.08;70.45;100502.16;5082508;28;20711;-83
2021/10/02 08:40:06;;;;;;;1.50;1.10;;;;;;;16.23;69.64;100511.53;5088469;28;20210;-83
2021/10/02 08:42:37;;;;;;;1.40;1.13;;;;;;;16.34;68.87;100502.50;5086030;28;20211;-82
2021/10/02 08:45:05;;;;;;;2.73;1.27;;;;;;;16.44;68.09;100510.59;5085027;28;20625;-83
2021/10/02 08:47:37;;;;;;;1.20;1.10;;;;;;;16.46;67.09;100504.09;5082966;28;20225;-82
2021/10/02 08:50:08;;;;;;;2.27;1.47;;;;;;;16.45;67.28;100507.78;5086889;28;20211;-81
2021/10/02 08:52:36;;;;;;;2.23;1.10;;;;;;;16.48;66.69;100504.78;5091787;28;20211;-83
2021/10/02 08:55:05;;;;;;;1.40;1.30;;;;;;;16.46;66.73;100497.88;5090398;28;20292;-83
2021/10/02 08:57:35;;;;;;;3.53;1.33;;;;;;;16.43;67.12;100493.63;5088068;28;20246;-82
2021/10/02 09:00:05;;;;;;;1.70;1.00;;;;;;;16.45;67.00;100496.19;5088355;28;20268;-83
2021/10/02 09:02:32;;;;;;;2.30;1.10;;;;;;;16.47;67.04;100496.91;5081642;28;20211;-84
2021/10/02 09:04:58;;;;;;;2.53;1.50;;;;;;;16.49;67.03;100497.56;5083634;28;20222;-82
2021/10/02 09:07:25;;;;;;;3.00;1.00;;;;;;;16.51;66.69;100496.47;5080520;28;20230;-82
2021/10/02 09:09:55;;;;;;;1.60;1.10;;;;;;;16.56;66.94;100498.72;5085456;28;20289;-82
2021/10/02 09:12:22;;;;;;;1.93;1.10;;;;;;;16.61;67.36;100489.28;5090278;28;20217;-83
2021/10/02 09:14:50;;;;;;;2.13;1.33;;;;;;;16.71;67.32;100486.59;5083823;28;20289;-83
2021/10/02 09:17:17;;;;;;;2.37;0.93;;;;;;;16.79;66.97;100492.16;5083112;28;20230;-83
2021/10/02 09:19:43;;;;;;;2.40;1.20;;;;;;;16.84;66.37;100497.13;5080545;28;20222;-83
2021/10/02 09:22:12;;;;;;;1.40;1.20;;;;;;;16.87;65.83;100494.13;5087830;28;20211;-84
2021/10/02 09:24:43;;;;;;;2.20;1.17;;;;;;;16.87;65.83;100489.59;5080612;28;20213;-82
2021/10/02 09:27:17;;;;;;;1.40;1.10;;;;;;;16.89;66.00;100492.13;5085155;28;20221;-82
2021/10/02 09:29:45;;;;;;;2.13;1.00;;;;;;;16.92;65.31;100481.09;5079082;28;20213;-84
2021/10/02 09:32:14;;;;;;;1.27;1.17;;;;;;;16.97;64.99;100486.91;5086467;28;20586;-85
2021/10/02 09:34:46;;;;;;;1.60;0.80;;;;;;;17.05;65.19;100473.59;5083305;28;20204;-84
2021/10/02 09:37:34;;;;;;;0.97;0.87;;;;;;;17.14;64.73;100467.34;5085496;28;20209;-85
2021/10/02 09:40:04;;;;;;;1.63;1.00;;;;;;;17.20;64.74;100477.53;5084250;28;20250;-86
2021/10/02 09:42:35;;;;;;;1.00;0.90;;;;;;;17.24;64.06;100470.03;5087278;28;20216;-84
2021/10/02 09:45:10;;;;;;;3.63;1.00;;;;;;;17.25;64.05;100471.72;5083741;28;20203;-85
2021/10/02 09:47:38;;;;;;;1.77;1.20;;;;;;;17.29;63.75;100462.38;5080964;28;20245;-84
2021/10/02 09:50:11;;;;;;;2.13;1.00;;;;;;;17.33;64.35;100451.19;5079757;28;20211;-84
2021/10/02 09:52:39;;;;;;;2.27;0.90;;;;;;;17.40;64.23;100458.66;5077933;28;20211;-84
2021/10/02 09:55:26;;;;;;;1.70;0.87;;;;;;;17.43;64.00;100461.91;5084538;28;20266;-82
2021/10/02 09:57:56;;;;;;;1.07;0.87;;;;;;;17.47;63.60;100459.78;5080629;28;20221;-83
2021/10/02 10:00:25;;;;;;;2.57;1.00;;;;;;;17.51;63.41;100453.13;5081144;28;20243;-84
2021/10/02 10:02:53;;;;;;;2.23;0.90;;;;;;;17.53;63.19;100461.91;5080420;28;20329;-83
2021/10/02 10:05:19;;;;;;;1.47;1.10;;;;;;;17.55;62.95;100450.00;5089079;28;20205;-84
2021/10/02 10:07:54;;;;;;;3.80;1.03;;;;;;;17.57;62.82;100453.34;5079163;28;20228;-84
2021/10/02 10:10:21;;;;;;;0.67;0.67;;;;;;;17.61;62.92;100453.91;5082015;28;20212;-84
2021/10/02 10:12:48;;;;;;;1.27;0.70;;;;;;;17.67;62.83;100466.84;5080809;28;20208;-83
2021/10/02 10:15:31;;;;;;;1.47;0.70;;;;;;;17.67;62.57;100462.31;5083987;28;20323;-83
2021/10/02 10:17:59;;;;;;;1.97;0.80;;;;;;;17.69;62.43;100457.63;5081226;28;20269;-83
2021/10/02 10:20:34;;;;;;;1.00;0.83;;;;;;;17.69;62.58;100456.78;5084036;28;20229;-80
2021/10/02 10:23:02;;;;;;;1.03;0.80;;;;;;;17.66;62.42;100457.06;5080914;28;20203;-83
2021/10/02 10:25:29;;;;;;;1.10;0.80;;;;;;;17.64;62.40;100459.03;5082070;28;20572;-83
2021/10/02 10:27:59;;;;;;;2.23;0.80;;;;;;;17.61;62.50;100460.16;5087361;28;20712;-81
2021/10/02 10:30:27;;;;;;;1.47;1.20;;;;;;;17.57;62.56;100453.34;5099426;28;20556;-81
2021/10/02 10:32:59;;;;;;;2.47;0.93;;;;;;;17.56;62.81;100446.28;5092260;28;20235;-81
2021/10/02 10:35:28;;;;;;;2.80;0.90;;;;;;;17.54;63.03;100439.38;5097975;28;20245;-81
2021/10/02 10:37:54;;;;;;;1.93;1.00;;;;;;;17.53;63.00;100445.75;5107572;28;20232;-82
2021/10/02 10:40:24;;;;;;;0.90;0.80;;;;;;;17.55;62.58;100446.44;5112629;28;20251;-84
2021/10/02 10:42:53;;;;;;;1.50;0.90;;;;;;;17.59;63.19;100445.13;5092887;28;20204;-81
2021/10/02 10:45:31;;;;;;;1.00;0.90;;;;;;;17.62;63.00;100434.91;5101231;28;20229;-82
2021/10/02 10:47:59;;;;;;;1.90;1.00;;;;;;;17.67;62.94;100442.59;5092797;28;20312;-82
2021/10/02 10:50:26;;;;;;;1.97;1.07;;;;;;;17.65;62.76;100447.28;5093162;28;20207;-82
2021/10/02 10:52:59;;;;;;;1.80;1.20;;;;;;;17.69;62.63;100443.31;5100646;28;20232;-81
2021/10/02 10:55:25;;;;;;;1.10;1.00;;;;;;;17.73;62.51;100435.78;5084049;28;20199;-82
2021/10/02 10:57:54;;;;;;;1.30;1.00;;;;;;;17.76;62.70;100425.53;5089496;28;20231;-81
2021/10/02 11:00:38;;;;;;;1.27;1.00;;;;;;;17.83;62.85;100436.56;5087416;28;20283;-83
2021/10/02 11:03:10;;;;;;;1.87;0.90;;;;;;;17.89;62.43;100426.06;5097890;28;20549;-81
2021/10/02 11:05:50;;;;;;;1.17;0.80;;;;;;;17.94;62.15;100426.44;5096296;28;20268;-81
2021/10/02 11:08:24;;;;;;;1.40;1.30;;;;;;;17.99;62.20;100428.69;5088597;28;20228;-83
2021/10/02 11:13:58;;;;;;;11.57;9.07;;;;;;;18.00;60.97;100420.47;5067611;28;20243;-80
2021/10/02 11:16:46;;;;;;;32.70;24.17;;;;;;;18.03;61.44;100427.41;5098241;28;20204;-81
2021/10/02 11:19:38;;;;;;;7.07;5.97;;;;;;;18.06;61.17;100419.03;5089682;28;20225;-81
2021/10/02 11:23:03;;;;;;;11.77;10.67;;;;;;;18.08;60.92;100411.63;5092527;28;20279;-82
2021/10/02 11:25:42;;;;;;;14.80;11.90;;;;;;;18.06;60.69;100408.25;5097339;28;20203;-83
2021/10/02 11:28:29;;;;;;;9.43;8.53;;;;;;;18.05;60.45;100401.16;5087851;28;20663;-82
2021/10/02 11:30:57;;;;;;;2.33;1.77;;;;;;;18.06;60.50;100394.78;5090036;28;20208;-81
2021/10/02 11:33:33;;;;;;;3.37;2.77;;;;;;;18.10;60.79;100395.28;5095095;28;20197;-82
2021/10/02 11:36:21;;;;;;;1.83;1.73;;;;;;;18.14;60.83;100396.69;5092680;28;20560;-82
2021/10/02 11:38:48;;;;;;;1.30;1.20;;;;;;;18.19;60.92;100389.84;5089732;28;20365;-81
2021/10/02 11:41:22;;;;;;;1.73;1.30;;;;;;;18.21;60.78;100384.31;5093106;28;20293;-81
2021/10/02 11:43:56;;;;;;;1.87;0.97;;;;;;;18.22;60.86;100380.63;5086972;28;20260;-81
2021/10/02 11:46:25;;;;;;;1.37;0.90;;;;;;;18.30;61.29;100375.28;5095615;28;20204;-81
2021/10/02 11:48:52;;;;;;;1.53;1.17;;;;;;;18.37;61.09;100373.69;5086834;28;20249;-81
2021/10/02 11:51:31;;;;;;;2.80;1.30;;;;;;;18.40;60.74;100365.28;5090434;28;20201;-80
2021/10/02 11:54:16;;;;;;;5.20;1.50;;;;;;;18.41;60.52;100364.28;5087535;28;20222;-81
2021/10/02 11:56:43;;;;;;;1.43;1.10;;;;;;;18.42;60.49;100363.28;5091742;28;20205;-81
2021/10/02 11:59:11;;;;;;;1.57;1.20;;;;;;;18.43;60.42;100365.00;5089247;28;20236;-81
2021/10/02 12:01:40;;;;;;;1.53;1.10;;;;;;;18.44;60.40;100355.91;5094928;28;20529;-83
2021/10/02 12:04:09;;;;;;;3.67;1.23;;;;;;;18.47;60.68;100352.88;5092146;28;20292;-82
2021/10/02 12:06:39;;;;;;;2.53;1.47;;;;;;;18.52;60.64;100350.56;5092238;28;20218;-81
2021/10/02 12:09:10;;;;;;;1.20;1.00;;;;;;;18.58;60.66;100349.09;5093681;28;20217;-82
2021/10/02 12:11:43;;;;;;;1.47;0.90;;;;;;;18.62;60.19;100348.69;5092653;28;20298;-82
2021/10/02 12:14:14;;;;;;;1.67;1.00;;;;;;;18.64;59.86;100343.94;5093869;28;20202;-81
2021/10/02 12:16:40;;;;;;;1.30;1.20;;;;;;;18.63;60.16;100346.81;5103463;28;20283;-81
2021/10/02 12:19:09;;;;;;;1.23;0.90;;;;;;;18.65;60.14;100344.78;5102449;28;20814;-82
2021/10/02 12:21:43;;;;;;;1.60;1.10;;;;;;;18.64;59.79;100343.94;5102019;28;20212;-82
2021/10/02 12:24:13;;;;;;;1.10;0.97;;;;;;;18.61;59.69;100357.78;5098991;28;20284;-81